<?xml version="1.0" encoding="UTF-8" standalone="no" ?>
<gpx xmlns="http://www.topografix.com/GPX/1/1" xmlns:xsi="http://www.w3.org/2001/XMLSchema-instance" xsi:schemaLocation="http://www.topografix.com/GPX/1/1 http://www.topografix.com/GPX/1/1/gpx.xsd" version="1.1" creator="VisuGPX - https://www.visugpx.com">
  <metadata>
    <name>2ème étape PLM 2018 Saint-Marcel - Saint-Ouen-du-Tilleul</name>
    <desc><![CDATA[2ème étape PLM 2018 Saint-Marcel - Saint-Ouen-du-Tilleul]]></desc>
  </metadata>
  <trk>
    <name><![CDATA[8156697-Vernon - Saint-Ouen-du-Tilleul]]></name>
    <trkseg>
      <trkpt lat="49.09525" lon="1.42752">
        <ele>140</ele>
        <time>2018-05-07T21:26:17Z</time>
      </trkpt>
      <trkpt lat="49.09478" lon="1.42797">
        <ele>140</ele>
        <time>2018-05-07T21:27:17Z</time>
      </trkpt>
      <trkpt lat="49.09541" lon="1.42948">
        <ele>139</ele>
        <time>2018-05-07T21:28:17Z</time>
      </trkpt>
      <trkpt lat="49.09533" lon="1.43012">
        <ele>137</ele>
        <time>2018-05-07T21:29:17Z</time>
      </trkpt>
      <trkpt lat="49.09566" lon="1.43042">
        <ele>136</ele>
        <time>2018-05-07T21:30:17Z</time>
      </trkpt>
      <trkpt lat="49.09594" lon="1.42992">
        <ele>137</ele>
        <time>2018-05-07T21:31:17Z</time>
      </trkpt>
      <trkpt lat="49.09897" lon="1.42948">
        <ele>137</ele>
        <time>2018-05-07T21:32:17Z</time>
      </trkpt>
      <trkpt lat="49.10252" lon="1.42763">
        <ele>139</ele>
        <time>2018-05-07T21:33:17Z</time>
      </trkpt>
      <trkpt lat="49.10301" lon="1.42436">
        <ele>143</ele>
        <time>2018-05-07T21:34:17Z</time>
      </trkpt>
      <trkpt lat="49.10365" lon="1.41793">
        <ele>140</ele>
        <time>2018-05-07T21:35:17Z</time>
      </trkpt>
      <trkpt lat="49.10687" lon="1.4086">
        <ele>138</ele>
        <time>2018-05-07T21:36:17Z</time>
      </trkpt>
      <trkpt lat="49.10636" lon="1.4069">
        <ele>133</ele>
        <time>2018-05-07T21:37:17Z</time>
      </trkpt>
      <trkpt lat="49.10598" lon="1.40529">
        <ele>130</ele>
        <time>2018-05-07T21:38:17Z</time>
      </trkpt>
      <trkpt lat="49.10527" lon="1.40455">
        <ele>130</ele>
        <time>2018-05-07T21:39:17Z</time>
      </trkpt>
      <trkpt lat="49.10417" lon="1.40132">
        <ele>128</ele>
        <time>2018-05-07T21:40:17Z</time>
      </trkpt>
      <trkpt lat="49.104" lon="1.40007">
        <ele>129</ele>
        <time>2018-05-07T21:41:17Z</time>
      </trkpt>
      <trkpt lat="49.10438" lon="1.39827">
        <ele>129</ele>
        <time>2018-05-07T21:42:17Z</time>
      </trkpt>
      <trkpt lat="49.10474" lon="1.39388">
        <ele>129</ele>
        <time>2018-05-07T21:43:17Z</time>
      </trkpt>
      <trkpt lat="49.10457" lon="1.39218">
        <ele>126</ele>
        <time>2018-05-07T21:44:17Z</time>
      </trkpt>
      <trkpt lat="49.10523" lon="1.39115">
        <ele>123</ele>
        <time>2018-05-07T21:45:17Z</time>
      </trkpt>
      <trkpt lat="49.10588" lon="1.38921">
        <ele>125</ele>
        <time>2018-05-07T21:46:17Z</time>
      </trkpt>
      <trkpt lat="49.10393" lon="1.3861">
        <ele>132</ele>
        <time>2018-05-07T21:47:17Z</time>
      </trkpt>
      <trkpt lat="49.10249" lon="1.38464">
        <ele>133</ele>
        <time>2018-05-07T21:48:17Z</time>
      </trkpt>
      <trkpt lat="49.10094" lon="1.38441">
        <ele>127</ele>
        <time>2018-05-07T21:49:17Z</time>
      </trkpt>
      <trkpt lat="49.09836" lon="1.3802">
        <ele>110</ele>
        <time>2018-05-07T21:50:17Z</time>
      </trkpt>
      <trkpt lat="49.09776" lon="1.37965">
        <ele>111</ele>
        <time>2018-05-07T21:51:17Z</time>
      </trkpt>
      <trkpt lat="49.09756" lon="1.37968">
        <ele>112</ele>
        <time>2018-05-07T21:52:17Z</time>
      </trkpt>
      <trkpt lat="49.09745" lon="1.37932">
        <ele>111</ele>
        <time>2018-05-07T21:53:17Z</time>
      </trkpt>
      <trkpt lat="49.097" lon="1.37895">
        <ele>109</ele>
        <time>2018-05-07T21:54:17Z</time>
      </trkpt>
      <trkpt lat="49.0968" lon="1.37868">
        <ele>107</ele>
        <time>2018-05-07T21:55:17Z</time>
      </trkpt>
      <trkpt lat="49.09587" lon="1.37841">
        <ele>102</ele>
        <time>2018-05-07T21:56:17Z</time>
      </trkpt>
      <trkpt lat="49.09541" lon="1.37813">
        <ele>100</ele>
        <time>2018-05-07T21:57:17Z</time>
      </trkpt>
      <trkpt lat="49.09542" lon="1.37769">
        <ele>96</ele>
        <time>2018-05-07T21:58:17Z</time>
      </trkpt>
      <trkpt lat="49.09533" lon="1.37718">
        <ele>94</ele>
        <time>2018-05-07T21:59:17Z</time>
      </trkpt>
      <trkpt lat="49.09536" lon="1.37654">
        <ele>93</ele>
        <time>2018-05-07T22:00:17Z</time>
      </trkpt>
      <trkpt lat="49.09478" lon="1.37457">
        <ele>97</ele>
        <time>2018-05-07T22:01:17Z</time>
      </trkpt>
      <trkpt lat="49.09508" lon="1.37436">
        <ele>98</ele>
        <time>2018-05-07T22:02:17Z</time>
      </trkpt>
      <trkpt lat="49.09501" lon="1.37384">
        <ele>101</ele>
        <time>2018-05-07T22:03:17Z</time>
      </trkpt>
      <trkpt lat="49.09476" lon="1.37332">
        <ele>104</ele>
        <time>2018-05-07T22:04:17Z</time>
      </trkpt>
      <trkpt lat="49.09452" lon="1.37241">
        <ele>111</ele>
        <time>2018-05-07T22:05:17Z</time>
      </trkpt>
      <trkpt lat="49.09431" lon="1.3719">
        <ele>113</ele>
        <time>2018-05-07T22:06:17Z</time>
      </trkpt>
      <trkpt lat="49.09429" lon="1.3712">
        <ele>117</ele>
        <time>2018-05-07T22:07:17Z</time>
      </trkpt>
      <trkpt lat="49.09418" lon="1.36958">
        <ele>122</ele>
        <time>2018-05-07T22:08:17Z</time>
      </trkpt>
      <trkpt lat="49.09373" lon="1.36674">
        <ele>126</ele>
        <time>2018-05-07T22:09:17Z</time>
      </trkpt>
      <trkpt lat="49.09387" lon="1.36654">
        <ele>127</ele>
        <time>2018-05-07T22:10:17Z</time>
      </trkpt>
      <trkpt lat="49.09391" lon="1.36452">
        <ele>128</ele>
        <time>2018-05-07T22:11:17Z</time>
      </trkpt>
      <trkpt lat="49.10166" lon="1.35078">
        <ele>131</ele>
        <time>2018-05-07T22:12:17Z</time>
      </trkpt>
      <trkpt lat="49.10231" lon="1.35138">
        <ele>132</ele>
        <time>2018-05-07T22:13:17Z</time>
      </trkpt>
      <trkpt lat="49.10313" lon="1.3517">
        <ele>131</ele>
        <time>2018-05-07T22:14:17Z</time>
      </trkpt>
      <trkpt lat="49.10214" lon="1.35097">
        <ele>132</ele>
        <time>2018-05-07T22:15:17Z</time>
      </trkpt>
      <trkpt lat="49.1007" lon="1.34902">
        <ele>137</ele>
        <time>2018-05-07T22:16:17Z</time>
      </trkpt>
      <trkpt lat="49.10007" lon="1.34783">
        <ele>135</ele>
        <time>2018-05-07T22:17:17Z</time>
      </trkpt>
      <trkpt lat="49.09501" lon="1.34976">
        <ele>133</ele>
        <time>2018-05-07T22:18:17Z</time>
      </trkpt>
      <trkpt lat="49.09548" lon="1.3468">
        <ele>127</ele>
        <time>2018-05-07T22:19:17Z</time>
      </trkpt>
      <trkpt lat="49.09633" lon="1.3443">
        <ele>126</ele>
        <time>2018-05-07T22:20:17Z</time>
      </trkpt>
      <trkpt lat="49.09665" lon="1.34212">
        <ele>128</ele>
        <time>2018-05-07T22:21:17Z</time>
      </trkpt>
      <trkpt lat="49.09526" lon="1.33852">
        <ele>130</ele>
        <time>2018-05-07T22:22:17Z</time>
      </trkpt>
      <trkpt lat="49.09502" lon="1.33808">
        <ele>131</ele>
        <time>2018-05-07T22:23:17Z</time>
      </trkpt>
      <trkpt lat="49.09619" lon="1.33713">
        <ele>127</ele>
        <time>2018-05-07T22:24:17Z</time>
      </trkpt>
      <trkpt lat="49.09704" lon="1.3353">
        <ele>118</ele>
        <time>2018-05-07T22:25:17Z</time>
      </trkpt>
      <trkpt lat="49.09769" lon="1.33439">
        <ele>104</ele>
        <time>2018-05-07T22:26:17Z</time>
      </trkpt>
      <trkpt lat="49.09773" lon="1.33389">
        <ele>100</ele>
        <time>2018-05-07T22:27:17Z</time>
      </trkpt>
      <trkpt lat="49.09713" lon="1.33308">
        <ele>98</ele>
        <time>2018-05-07T22:28:17Z</time>
      </trkpt>
      <trkpt lat="49.09699" lon="1.33255">
        <ele>95</ele>
        <time>2018-05-07T22:29:17Z</time>
      </trkpt>
      <trkpt lat="49.09532" lon="1.33084">
        <ele>93</ele>
        <time>2018-05-07T22:30:17Z</time>
      </trkpt>
      <trkpt lat="49.0948" lon="1.3301">
        <ele>91</ele>
        <time>2018-05-07T22:31:17Z</time>
      </trkpt>
      <trkpt lat="49.09554" lon="1.3282">
        <ele>100</ele>
        <time>2018-05-07T22:32:17Z</time>
      </trkpt>
      <trkpt lat="49.09592" lon="1.32659">
        <ele>111</ele>
        <time>2018-05-07T22:33:17Z</time>
      </trkpt>
      <trkpt lat="49.0961" lon="1.32284">
        <ele>128</ele>
        <time>2018-05-07T22:34:17Z</time>
      </trkpt>
      <trkpt lat="49.09588" lon="1.32236">
        <ele>132</ele>
        <time>2018-05-07T22:35:17Z</time>
      </trkpt>
      <trkpt lat="49.09563" lon="1.32117">
        <ele>136</ele>
        <time>2018-05-07T22:36:17Z</time>
      </trkpt>
      <trkpt lat="49.0959" lon="1.32128">
        <ele>134</ele>
        <time>2018-05-07T22:37:17Z</time>
      </trkpt>
      <trkpt lat="49.09632" lon="1.32063">
        <ele>135</ele>
        <time>2018-05-07T22:38:17Z</time>
      </trkpt>
      <trkpt lat="49.09667" lon="1.32034">
        <ele>134</ele>
        <time>2018-05-07T22:39:17Z</time>
      </trkpt>
      <trkpt lat="49.09673" lon="1.31969">
        <ele>135</ele>
        <time>2018-05-07T22:40:17Z</time>
      </trkpt>
      <trkpt lat="49.0969" lon="1.31935">
        <ele>136</ele>
        <time>2018-05-07T22:41:17Z</time>
      </trkpt>
      <trkpt lat="49.09693" lon="1.31875">
        <ele>138</ele>
        <time>2018-05-07T22:42:17Z</time>
      </trkpt>
      <trkpt lat="49.0968" lon="1.31806">
        <ele>138</ele>
        <time>2018-05-07T22:43:17Z</time>
      </trkpt>
      <trkpt lat="49.09685" lon="1.31696">
        <ele>136</ele>
        <time>2018-05-07T22:44:17Z</time>
      </trkpt>
      <trkpt lat="49.09686" lon="1.31603">
        <ele>135</ele>
        <time>2018-05-07T22:45:17Z</time>
      </trkpt>
      <trkpt lat="49.09692" lon="1.31495">
        <ele>131</ele>
        <time>2018-05-07T22:46:17Z</time>
      </trkpt>
      <trkpt lat="49.09681" lon="1.31462">
        <ele>131</ele>
        <time>2018-05-07T22:47:17Z</time>
      </trkpt>
      <trkpt lat="49.09659" lon="1.31444">
        <ele>130</ele>
        <time>2018-05-07T22:48:17Z</time>
      </trkpt>
      <trkpt lat="49.09629" lon="1.31391">
        <ele>126</ele>
        <time>2018-05-07T22:49:17Z</time>
      </trkpt>
      <trkpt lat="49.09558" lon="1.31338">
        <ele>121</ele>
        <time>2018-05-07T22:50:17Z</time>
      </trkpt>
      <trkpt lat="49.09507" lon="1.31239">
        <ele>116</ele>
        <time>2018-05-07T22:51:17Z</time>
      </trkpt>
      <trkpt lat="49.09485" lon="1.3114">
        <ele>115</ele>
        <time>2018-05-07T22:52:17Z</time>
      </trkpt>
      <trkpt lat="49.0938" lon="1.31002">
        <ele>107</ele>
        <time>2018-05-07T22:53:17Z</time>
      </trkpt>
      <trkpt lat="49.09331" lon="1.30967">
        <ele>104</ele>
        <time>2018-05-07T22:54:17Z</time>
      </trkpt>
      <trkpt lat="49.09247" lon="1.30952">
        <ele>96</ele>
        <time>2018-05-07T22:55:17Z</time>
      </trkpt>
      <trkpt lat="49.09181" lon="1.30901">
        <ele>90</ele>
        <time>2018-05-07T22:56:17Z</time>
      </trkpt>
      <trkpt lat="49.09101" lon="1.30764">
        <ele>81</ele>
        <time>2018-05-07T22:57:17Z</time>
      </trkpt>
      <trkpt lat="49.09079" lon="1.30461">
        <ele>65</ele>
        <time>2018-05-07T22:58:17Z</time>
      </trkpt>
      <trkpt lat="49.09103" lon="1.3035">
        <ele>62</ele>
        <time>2018-05-07T22:59:17Z</time>
      </trkpt>
      <trkpt lat="49.08928" lon="1.29955">
        <ele>58</ele>
        <time>2018-05-07T23:00:17Z</time>
      </trkpt>
      <trkpt lat="49.08931" lon="1.29638">
        <ele>57</ele>
        <time>2018-05-07T23:01:17Z</time>
      </trkpt>
      <trkpt lat="49.08968" lon="1.29406">
        <ele>51</ele>
        <time>2018-05-07T23:02:17Z</time>
      </trkpt>
      <trkpt lat="49.09017" lon="1.29279">
        <ele>49</ele>
        <time>2018-05-07T23:03:17Z</time>
      </trkpt>
      <trkpt lat="49.0903" lon="1.28814">
        <ele>38</ele>
        <time>2018-05-07T23:04:17Z</time>
      </trkpt>
      <trkpt lat="49.09012" lon="1.28761">
        <ele>37</ele>
        <time>2018-05-07T23:05:17Z</time>
      </trkpt>
      <trkpt lat="49.091" lon="1.2866">
        <ele>37</ele>
        <time>2018-05-07T23:06:17Z</time>
      </trkpt>
      <trkpt lat="49.08975" lon="1.28405">
        <ele>30</ele>
        <time>2018-05-07T23:07:17Z</time>
      </trkpt>
      <trkpt lat="49.08979" lon="1.28267">
        <ele>32</ele>
        <time>2018-05-07T23:08:17Z</time>
      </trkpt>
      <trkpt lat="49.09022" lon="1.28285">
        <ele>31</ele>
        <time>2018-05-07T23:09:17Z</time>
      </trkpt>
      <trkpt lat="49.0937" lon="1.2755">
        <ele>31</ele>
        <time>2018-05-07T23:10:17Z</time>
      </trkpt>
      <trkpt lat="49.093" lon="1.27471">
        <ele>32</ele>
        <time>2018-05-07T23:11:17Z</time>
      </trkpt>
      <trkpt lat="49.09354" lon="1.2718">
        <ele>30</ele>
        <time>2018-05-07T23:12:17Z</time>
      </trkpt>
      <trkpt lat="49.09372" lon="1.26921">
        <ele>30</ele>
        <time>2018-05-07T23:13:17Z</time>
      </trkpt>
      <trkpt lat="49.09567" lon="1.26604">
        <ele>30</ele>
        <time>2018-05-07T23:14:17Z</time>
      </trkpt>
      <trkpt lat="49.09727" lon="1.26537">
        <ele>29</ele>
        <time>2018-05-07T23:15:17Z</time>
      </trkpt>
      <trkpt lat="49.0986" lon="1.26367">
        <ele>30</ele>
        <time>2018-05-07T23:16:17Z</time>
      </trkpt>
      <trkpt lat="49.10009" lon="1.26209">
        <ele>30</ele>
        <time>2018-05-07T23:17:17Z</time>
      </trkpt>
      <trkpt lat="49.0992" lon="1.25846">
        <ele>31</ele>
        <time>2018-05-07T23:18:17Z</time>
      </trkpt>
      <trkpt lat="49.09664" lon="1.25545">
        <ele>28</ele>
        <time>2018-05-07T23:19:17Z</time>
      </trkpt>
      <trkpt lat="49.09591" lon="1.25384">
        <ele>28</ele>
        <time>2018-05-07T23:20:17Z</time>
      </trkpt>
      <trkpt lat="49.09854" lon="1.24889">
        <ele>26</ele>
        <time>2018-05-07T23:21:17Z</time>
      </trkpt>
      <trkpt lat="49.09899" lon="1.24677">
        <ele>29</ele>
        <time>2018-05-07T23:22:17Z</time>
      </trkpt>
      <trkpt lat="49.09887" lon="1.24505">
        <ele>30</ele>
        <time>2018-05-07T23:23:17Z</time>
      </trkpt>
      <trkpt lat="49.0996" lon="1.24294">
        <ele>28</ele>
        <time>2018-05-07T23:24:17Z</time>
      </trkpt>
      <trkpt lat="49.10189" lon="1.24489">
        <ele>28</ele>
        <time>2018-05-07T23:25:17Z</time>
      </trkpt>
      <trkpt lat="49.10274" lon="1.2432">
        <ele>28</ele>
        <time>2018-05-07T23:26:17Z</time>
      </trkpt>
      <trkpt lat="49.10268" lon="1.24138">
        <ele>28</ele>
        <time>2018-05-07T23:27:17Z</time>
      </trkpt>
      <trkpt lat="49.10379" lon="1.24077">
        <ele>27</ele>
        <time>2018-05-07T23:28:17Z</time>
      </trkpt>
      <trkpt lat="49.10421" lon="1.24092">
        <ele>28</ele>
        <time>2018-05-07T23:29:17Z</time>
      </trkpt>
      <trkpt lat="49.10491" lon="1.24153">
        <ele>25</ele>
        <time>2018-05-07T23:30:17Z</time>
      </trkpt>
      <trkpt lat="49.10647" lon="1.24174">
        <ele>26</ele>
        <time>2018-05-07T23:31:17Z</time>
      </trkpt>
      <trkpt lat="49.10661" lon="1.24074">
        <ele>25</ele>
        <time>2018-05-07T23:32:17Z</time>
      </trkpt>
      <trkpt lat="49.10714" lon="1.23882">
        <ele>26</ele>
        <time>2018-05-07T23:33:17Z</time>
      </trkpt>
      <trkpt lat="49.10707" lon="1.23791">
        <ele>27</ele>
        <time>2018-05-07T23:34:17Z</time>
      </trkpt>
      <trkpt lat="49.1069" lon="1.23742">
        <ele>27</ele>
        <time>2018-05-07T23:35:17Z</time>
      </trkpt>
      <trkpt lat="49.10848" lon="1.23304">
        <ele>28</ele>
        <time>2018-05-07T23:36:17Z</time>
      </trkpt>
      <trkpt lat="49.10946" lon="1.23175">
        <ele>24</ele>
        <time>2018-05-07T23:37:17Z</time>
      </trkpt>
      <trkpt lat="49.10953" lon="1.23126">
        <ele>24</ele>
        <time>2018-05-07T23:38:17Z</time>
      </trkpt>
      <trkpt lat="49.12804" lon="1.21035">
        <ele>25</ele>
        <time>2018-05-07T23:39:17Z</time>
      </trkpt>
      <trkpt lat="49.13716" lon="1.20553">
        <ele>33</ele>
        <time>2018-05-07T23:40:17Z</time>
      </trkpt>
      <trkpt lat="49.14256" lon="1.19897">
        <ele>26</ele>
        <time>2018-05-07T23:41:17Z</time>
      </trkpt>
      <trkpt lat="49.14726" lon="1.19576">
        <ele>25</ele>
        <time>2018-05-07T23:42:17Z</time>
      </trkpt>
      <trkpt lat="49.15155" lon="1.19354">
        <ele>24</ele>
        <time>2018-05-07T23:43:17Z</time>
      </trkpt>
      <trkpt lat="49.16076" lon="1.18589">
        <ele>18</ele>
        <time>2018-05-07T23:44:17Z</time>
      </trkpt>
      <trkpt lat="49.16272" lon="1.18504">
        <ele>20</ele>
        <time>2018-05-07T23:45:17Z</time>
      </trkpt>
      <trkpt lat="49.16855" lon="1.18207">
        <ele>19</ele>
        <time>2018-05-07T23:46:17Z</time>
      </trkpt>
      <trkpt lat="49.16994" lon="1.18155">
        <ele>18</ele>
        <time>2018-05-07T23:47:17Z</time>
      </trkpt>
      <trkpt lat="49.17056" lon="1.18395">
        <ele>15</ele>
        <time>2018-05-07T23:48:17Z</time>
      </trkpt>
      <trkpt lat="49.17167" lon="1.18371">
        <ele>20</ele>
        <time>2018-05-07T23:49:17Z</time>
      </trkpt>
      <trkpt lat="49.17228" lon="1.18626">
        <ele>22</ele>
        <time>2018-05-07T23:50:17Z</time>
      </trkpt>
      <trkpt lat="49.173" lon="1.1861">
        <ele>22</ele>
        <time>2018-05-07T23:51:17Z</time>
      </trkpt>
      <trkpt lat="49.17261" lon="1.18318">
        <ele>20</ele>
        <time>2018-05-07T23:52:17Z</time>
      </trkpt>
      <trkpt lat="49.17303" lon="1.18039">
        <ele>20</ele>
        <time>2018-05-07T23:53:17Z</time>
      </trkpt>
      <trkpt lat="49.17272" lon="1.17803">
        <ele>20</ele>
        <time>2018-05-07T23:54:17Z</time>
      </trkpt>
      <trkpt lat="49.17199" lon="1.17537">
        <ele>21</ele>
        <time>2018-05-07T23:55:17Z</time>
      </trkpt>
      <trkpt lat="49.17098" lon="1.17271">
        <ele>33</ele>
        <time>2018-05-07T23:56:17Z</time>
      </trkpt>
      <trkpt lat="49.17042" lon="1.17005">
        <ele>48</ele>
        <time>2018-05-07T23:57:17Z</time>
      </trkpt>
      <trkpt lat="49.17194" lon="1.16932">
        <ele>42</ele>
        <time>2018-05-07T23:58:17Z</time>
      </trkpt>
      <trkpt lat="49.17354" lon="1.16932">
        <ele>33</ele>
        <time>2018-05-07T23:59:17Z</time>
      </trkpt>
      <trkpt lat="49.17867" lon="1.16945">
        <ele>17</ele>
        <time>2018-05-08T00:00:17Z</time>
      </trkpt>
      <trkpt lat="49.18007" lon="1.16777">
        <ele>25</ele>
        <time>2018-05-08T00:01:17Z</time>
      </trkpt>
      <trkpt lat="49.18419" lon="1.16741">
        <ele>23</ele>
        <time>2018-05-08T00:02:17Z</time>
      </trkpt>
      <trkpt lat="49.18426" lon="1.16777">
        <ele>22</ele>
        <time>2018-05-08T00:03:17Z</time>
      </trkpt>
      <trkpt lat="49.18473" lon="1.16862">
        <ele>20</ele>
        <time>2018-05-08T00:04:17Z</time>
      </trkpt>
      <trkpt lat="49.18482" lon="1.16907">
        <ele>18</ele>
        <time>2018-05-08T00:05:17Z</time>
      </trkpt>
      <trkpt lat="49.18507" lon="1.16967">
        <ele>19</ele>
        <time>2018-05-08T00:06:17Z</time>
      </trkpt>
      <trkpt lat="49.1862" lon="1.16879">
        <ele>24</ele>
        <time>2018-05-08T00:07:17Z</time>
      </trkpt>
      <trkpt lat="49.18888" lon="1.16765">
        <ele>38</ele>
        <time>2018-05-08T00:08:17Z</time>
      </trkpt>
      <trkpt lat="49.19133" lon="1.16741">
        <ele>39</ele>
        <time>2018-05-08T00:09:17Z</time>
      </trkpt>
      <trkpt lat="49.1908" lon="1.16767">
        <ele>31</ele>
        <time>2018-05-08T00:10:17Z</time>
      </trkpt>
      <trkpt lat="49.19074" lon="1.16974">
        <ele>17</ele>
        <time>2018-05-08T00:11:17Z</time>
      </trkpt>
      <trkpt lat="49.19266" lon="1.17026">
        <ele>16</ele>
        <time>2018-05-08T00:12:17Z</time>
      </trkpt>
      <trkpt lat="49.19543" lon="1.17202">
        <ele>15</ele>
        <time>2018-05-08T00:13:17Z</time>
      </trkpt>
      <trkpt lat="49.19966" lon="1.1753">
        <ele>15</ele>
        <time>2018-05-08T00:14:17Z</time>
      </trkpt>
      <trkpt lat="49.20217" lon="1.17589">
        <ele>13</ele>
        <time>2018-05-08T00:15:17Z</time>
      </trkpt>
      <trkpt lat="49.20459" lon="1.1776">
        <ele>15</ele>
        <time>2018-05-08T00:16:17Z</time>
      </trkpt>
      <trkpt lat="49.20437" lon="1.17876">
        <ele>15</ele>
        <time>2018-05-08T00:17:17Z</time>
      </trkpt>
      <trkpt lat="49.20661" lon="1.17994">
        <ele>17</ele>
        <time>2018-05-08T00:18:17Z</time>
      </trkpt>
      <trkpt lat="49.20835" lon="1.18049">
        <ele>16</ele>
        <time>2018-05-08T00:19:17Z</time>
      </trkpt>
      <trkpt lat="49.20892" lon="1.17989">
        <ele>17</ele>
        <time>2018-05-08T00:20:17Z</time>
      </trkpt>
      <trkpt lat="49.20913" lon="1.17996">
        <ele>17</ele>
        <time>2018-05-08T00:21:17Z</time>
      </trkpt>
      <trkpt lat="49.20933" lon="1.17991">
        <ele>17</ele>
        <time>2018-05-08T00:22:17Z</time>
      </trkpt>
      <trkpt lat="49.2096" lon="1.17989">
        <ele>17</ele>
        <time>2018-05-08T00:23:17Z</time>
      </trkpt>
      <trkpt lat="49.2096" lon="1.17918">
        <ele>16</ele>
        <time>2018-05-08T00:24:17Z</time>
      </trkpt>
      <trkpt lat="49.20978" lon="1.17799">
        <ele>17</ele>
        <time>2018-05-08T00:25:17Z</time>
      </trkpt>
      <trkpt lat="49.21006" lon="1.17814">
        <ele>17</ele>
        <time>2018-05-08T00:26:17Z</time>
      </trkpt>
      <trkpt lat="49.21078" lon="1.17894">
        <ele>15</ele>
        <time>2018-05-08T00:27:17Z</time>
      </trkpt>
      <trkpt lat="49.21163" lon="1.17913">
        <ele>15</ele>
        <time>2018-05-08T00:28:17Z</time>
      </trkpt>
      <trkpt lat="49.21238" lon="1.17949">
        <ele>16</ele>
        <time>2018-05-08T00:29:17Z</time>
      </trkpt>
      <trkpt lat="49.21268" lon="1.17964">
        <ele>16</ele>
        <time>2018-05-08T00:30:17Z</time>
      </trkpt>
      <trkpt lat="49.21303" lon="1.17947">
        <ele>15</ele>
        <time>2018-05-08T00:31:17Z</time>
      </trkpt>
      <trkpt lat="49.21367" lon="1.17959">
        <ele>15</ele>
        <time>2018-05-08T00:32:17Z</time>
      </trkpt>
      <trkpt lat="49.21883" lon="1.17867">
        <ele>14</ele>
        <time>2018-05-08T00:33:17Z</time>
      </trkpt>
      <trkpt lat="49.21911" lon="1.17867">
        <ele>13</ele>
        <time>2018-05-08T00:34:17Z</time>
      </trkpt>
      <trkpt lat="49.21929" lon="1.17855">
        <ele>14</ele>
        <time>2018-05-08T00:35:17Z</time>
      </trkpt>
      <trkpt lat="49.22126" lon="1.17832">
        <ele>18</ele>
        <time>2018-05-08T00:36:17Z</time>
      </trkpt>
      <trkpt lat="49.22234" lon="1.17805">
        <ele>15</ele>
        <time>2018-05-08T00:37:17Z</time>
      </trkpt>
      <trkpt lat="49.22261" lon="1.17781">
        <ele>14</ele>
        <time>2018-05-08T00:38:17Z</time>
      </trkpt>
      <trkpt lat="49.22273" lon="1.17754">
        <ele>14</ele>
        <time>2018-05-08T00:39:17Z</time>
      </trkpt>
      <trkpt lat="49.22266" lon="1.17692">
        <ele>14</ele>
        <time>2018-05-08T00:40:17Z</time>
      </trkpt>
      <trkpt lat="49.22282" lon="1.17642">
        <ele>14</ele>
        <time>2018-05-08T00:41:17Z</time>
      </trkpt>
      <trkpt lat="49.22303" lon="1.17653">
        <ele>14</ele>
        <time>2018-05-08T00:42:17Z</time>
      </trkpt>
      <trkpt lat="49.22264" lon="1.17613">
        <ele>13</ele>
        <time>2018-05-08T00:43:17Z</time>
      </trkpt>
      <trkpt lat="49.22308" lon="1.17298">
        <ele>15</ele>
        <time>2018-05-08T00:44:17Z</time>
      </trkpt>
      <trkpt lat="49.22333" lon="1.16734">
        <ele>16</ele>
        <time>2018-05-08T00:45:17Z</time>
      </trkpt>
      <trkpt lat="49.22607" lon="1.16148">
        <ele>22</ele>
        <time>2018-05-08T00:46:17Z</time>
      </trkpt>
      <trkpt lat="49.22729" lon="1.15886">
        <ele>29</ele>
        <time>2018-05-08T00:47:17Z</time>
      </trkpt>
      <trkpt lat="49.22748" lon="1.15806">
        <ele>35</ele>
        <time>2018-05-08T00:48:17Z</time>
      </trkpt>
      <trkpt lat="49.22785" lon="1.15828">
        <ele>43</ele>
        <time>2018-05-08T00:49:17Z</time>
      </trkpt>
      <trkpt lat="49.228" lon="1.15821">
        <ele>47</ele>
        <time>2018-05-08T00:50:17Z</time>
      </trkpt>
      <trkpt lat="49.22856" lon="1.15459">
        <ele>68</ele>
        <time>2018-05-08T00:51:17Z</time>
      </trkpt>
      <trkpt lat="49.22923" lon="1.15335">
        <ele>86</ele>
        <time>2018-05-08T00:52:17Z</time>
      </trkpt>
      <trkpt lat="49.23192" lon="1.14704">
        <ele>119</ele>
        <time>2018-05-08T00:53:17Z</time>
      </trkpt>
      <trkpt lat="49.2338" lon="1.14511">
        <ele>118</ele>
        <time>2018-05-08T00:54:17Z</time>
      </trkpt>
      <trkpt lat="49.23497" lon="1.14249">
        <ele>117</ele>
        <time>2018-05-08T00:55:17Z</time>
      </trkpt>
      <trkpt lat="49.23675" lon="1.13303">
        <ele>121</ele>
        <time>2018-05-08T00:56:17Z</time>
      </trkpt>
      <trkpt lat="49.23744" lon="1.12945">
        <ele>122</ele>
        <time>2018-05-08T00:57:17Z</time>
      </trkpt>
      <trkpt lat="49.2373" lon="1.12692">
        <ele>124</ele>
        <time>2018-05-08T00:58:17Z</time>
      </trkpt>
      <trkpt lat="49.24845" lon="1.13207">
        <ele>85</ele>
        <time>2018-05-08T00:59:17Z</time>
      </trkpt>
      <trkpt lat="49.24842" lon="1.13318">
        <ele>82</ele>
        <time>2018-05-08T01:00:17Z</time>
      </trkpt>
      <trkpt lat="49.24856" lon="1.13413">
        <ele>84</ele>
        <time>2018-05-08T01:01:17Z</time>
      </trkpt>
      <trkpt lat="49.24884" lon="1.13516">
        <ele>82</ele>
        <time>2018-05-08T01:02:17Z</time>
      </trkpt>
      <trkpt lat="49.24954" lon="1.13687">
        <ele>77</ele>
        <time>2018-05-08T01:03:17Z</time>
      </trkpt>
      <trkpt lat="49.24906" lon="1.13786">
        <ele>79</ele>
        <time>2018-05-08T01:04:17Z</time>
      </trkpt>
      <trkpt lat="49.2485" lon="1.1385">
        <ele>76</ele>
        <time>2018-05-08T01:05:17Z</time>
      </trkpt>
      <trkpt lat="49.2501" lon="1.13915">
        <ele>70</ele>
        <time>2018-05-08T01:06:17Z</time>
      </trkpt>
      <trkpt lat="49.25041" lon="1.13859">
        <ele>74</ele>
        <time>2018-05-08T01:07:17Z</time>
      </trkpt>
      <trkpt lat="49.25049" lon="1.13726">
        <ele>81</ele>
        <time>2018-05-08T01:08:17Z</time>
      </trkpt>
      <trkpt lat="49.24965" lon="1.13571">
        <ele>81</ele>
        <time>2018-05-08T01:09:17Z</time>
      </trkpt>
      <trkpt lat="49.24901" lon="1.13387">
        <ele>84</ele>
        <time>2018-05-08T01:10:17Z</time>
      </trkpt>
      <trkpt lat="49.24895" lon="1.13211">
        <ele>82</ele>
        <time>2018-05-08T01:11:17Z</time>
      </trkpt>
      <trkpt lat="49.25041" lon="1.12958">
        <ele>93</ele>
        <time>2018-05-08T01:12:17Z</time>
      </trkpt>
      <trkpt lat="49.25047" lon="1.12593">
        <ele>100</ele>
        <time>2018-05-08T01:13:17Z</time>
      </trkpt>
      <trkpt lat="49.24982" lon="1.12374">
        <ele>95</ele>
        <time>2018-05-08T01:14:17Z</time>
      </trkpt>
      <trkpt lat="49.24991" lon="1.12271">
        <ele>91</ele>
        <time>2018-05-08T01:15:17Z</time>
      </trkpt>
      <trkpt lat="49.25069" lon="1.1216">
        <ele>88</ele>
        <time>2018-05-08T01:16:17Z</time>
      </trkpt>
      <trkpt lat="49.25203" lon="1.12065">
        <ele>91</ele>
        <time>2018-05-08T01:17:17Z</time>
      </trkpt>
      <trkpt lat="49.25313" lon="1.11958">
        <ele>97</ele>
        <time>2018-05-08T01:18:17Z</time>
      </trkpt>
      <trkpt lat="49.25503" lon="1.11932">
        <ele>103</ele>
        <time>2018-05-08T01:19:17Z</time>
      </trkpt>
      <trkpt lat="49.25556" lon="1.11829">
        <ele>104</ele>
        <time>2018-05-08T01:20:17Z</time>
      </trkpt>
      <trkpt lat="49.25587" lon="1.11589">
        <ele>109</ele>
        <time>2018-05-08T01:21:17Z</time>
      </trkpt>
      <trkpt lat="49.2573" lon="1.11374">
        <ele>112</ele>
        <time>2018-05-08T01:22:17Z</time>
      </trkpt>
      <trkpt lat="49.25789" lon="1.11168">
        <ele>115</ele>
        <time>2018-05-08T01:23:17Z</time>
      </trkpt>
      <trkpt lat="49.25901" lon="1.11095">
        <ele>120</ele>
        <time>2018-05-08T01:24:17Z</time>
      </trkpt>
      <trkpt lat="49.25948" lon="1.11121">
        <ele>122</ele>
        <time>2018-05-08T01:25:17Z</time>
      </trkpt>
      <trkpt lat="49.2599" lon="1.11108">
        <ele>122</ele>
        <time>2018-05-08T01:26:17Z</time>
      </trkpt>
      <trkpt lat="49.26013" lon="1.11134">
        <ele>122</ele>
        <time>2018-05-08T01:27:17Z</time>
      </trkpt>
      <trkpt lat="49.26019" lon="1.1119">
        <ele>121</ele>
        <time>2018-05-08T01:28:17Z</time>
      </trkpt>
      <trkpt lat="49.26061" lon="1.11198">
        <ele>121</ele>
        <time>2018-05-08T01:29:17Z</time>
      </trkpt>
      <trkpt lat="49.26089" lon="1.1122">
        <ele>120</ele>
        <time>2018-05-08T01:30:17Z</time>
      </trkpt>
      <trkpt lat="49.26175" lon="1.10979">
        <ele>126</ele>
        <time>2018-05-08T01:31:17Z</time>
      </trkpt>
      <trkpt lat="49.26189" lon="1.10906">
        <ele>127</ele>
        <time>2018-05-08T01:32:17Z</time>
      </trkpt>
      <trkpt lat="49.26514" lon="1.10434">
        <ele>127</ele>
        <time>2018-05-08T01:33:17Z</time>
      </trkpt>
      <trkpt lat="49.26531" lon="1.10383">
        <ele>127</ele>
        <time>2018-05-08T01:34:17Z</time>
      </trkpt>
      <trkpt lat="49.26559" lon="1.10297">
        <ele>127</ele>
        <time>2018-05-08T01:35:17Z</time>
      </trkpt>
      <trkpt lat="49.2659" lon="1.10241">
        <ele>128</ele>
        <time>2018-05-08T01:36:17Z</time>
      </trkpt>
      <trkpt lat="49.26601" lon="1.10065">
        <ele>128</ele>
        <time>2018-05-08T01:37:17Z</time>
      </trkpt>
      <trkpt lat="49.26618" lon="1.09898">
        <ele>126</ele>
        <time>2018-05-08T01:38:17Z</time>
      </trkpt>
      <trkpt lat="49.26632" lon="1.0967">
        <ele>125</ele>
        <time>2018-05-08T01:39:17Z</time>
      </trkpt>
      <trkpt lat="49.26665" lon="1.09585">
        <ele>124</ele>
        <time>2018-05-08T01:40:17Z</time>
      </trkpt>
      <trkpt lat="49.26691" lon="1.09503">
        <ele>123</ele>
        <time>2018-05-08T01:41:17Z</time>
      </trkpt>
      <trkpt lat="49.26741" lon="1.0946">
        <ele>123</ele>
        <time>2018-05-08T01:42:17Z</time>
      </trkpt>
      <trkpt lat="49.26783" lon="1.094">
        <ele>121</ele>
        <time>2018-05-08T01:43:17Z</time>
      </trkpt>
      <trkpt lat="49.26842" lon="1.0937">
        <ele>120</ele>
        <time>2018-05-08T01:44:17Z</time>
      </trkpt>
      <trkpt lat="49.26934" lon="1.09319">
        <ele>115</ele>
        <time>2018-05-08T01:45:17Z</time>
      </trkpt>
      <trkpt lat="49.26971" lon="1.09284">
        <ele>109</ele>
        <time>2018-05-08T01:46:17Z</time>
      </trkpt>
      <trkpt lat="49.27083" lon="1.09258">
        <ele>104</ele>
        <time>2018-05-08T01:47:17Z</time>
      </trkpt>
      <trkpt lat="49.27237" lon="1.091">
        <ele>88</ele>
        <time>2018-05-08T01:48:17Z</time>
      </trkpt>
      <trkpt lat="49.27301" lon="1.08988">
        <ele>81</ele>
        <time>2018-05-08T01:49:17Z</time>
      </trkpt>
      <trkpt lat="49.27309" lon="1.08902">
        <ele>74</ele>
        <time>2018-05-08T01:50:17Z</time>
      </trkpt>
      <trkpt lat="49.27315" lon="1.08786">
        <ele>65</ele>
        <time>2018-05-08T01:51:17Z</time>
      </trkpt>
      <trkpt lat="49.2734" lon="1.08756">
        <ele>62</ele>
        <time>2018-05-08T01:52:17Z</time>
      </trkpt>
      <trkpt lat="49.27368" lon="1.08662">
        <ele>61</ele>
        <time>2018-05-08T01:53:17Z</time>
      </trkpt>
      <trkpt lat="49.27449" lon="1.08546">
        <ele>57</ele>
        <time>2018-05-08T01:54:17Z</time>
      </trkpt>
      <trkpt lat="49.27511" lon="1.08186">
        <ele>52</ele>
        <time>2018-05-08T01:55:17Z</time>
      </trkpt>
      <trkpt lat="49.2727" lon="1.07842">
        <ele>55</ele>
        <time>2018-05-08T01:56:17Z</time>
      </trkpt>
      <trkpt lat="49.27248" lon="1.07877">
        <ele>56</ele>
        <time>2018-05-08T01:57:17Z</time>
      </trkpt>
      <trkpt lat="49.27225" lon="1.07795">
        <ele>55</ele>
        <time>2018-05-08T01:58:17Z</time>
      </trkpt>
      <trkpt lat="49.2715" lon="1.07709">
        <ele>56</ele>
        <time>2018-05-08T01:59:17Z</time>
      </trkpt>
      <trkpt lat="49.27125" lon="1.07632">
        <ele>54</ele>
        <time>2018-05-08T02:00:17Z</time>
      </trkpt>
      <trkpt lat="49.27055" lon="1.0758">
        <ele>55</ele>
        <time>2018-05-08T02:01:17Z</time>
      </trkpt>
      <trkpt lat="49.27035" lon="1.07538">
        <ele>54</ele>
        <time>2018-05-08T02:02:17Z</time>
      </trkpt>
      <trkpt lat="49.2699" lon="1.07486">
        <ele>53</ele>
        <time>2018-05-08T02:03:17Z</time>
      </trkpt>
      <trkpt lat="49.26959" lon="1.07396">
        <ele>54</ele>
        <time>2018-05-08T02:04:17Z</time>
      </trkpt>
      <trkpt lat="49.26555" lon="1.0684">
        <ele>62</ele>
        <time>2018-05-08T02:05:17Z</time>
      </trkpt>
      <trkpt lat="49.26299" lon="1.06493">
        <ele>75</ele>
        <time>2018-05-08T02:06:17Z</time>
      </trkpt>
      <trkpt lat="49.26411" lon="1.06218">
        <ele>67</ele>
        <time>2018-05-08T02:07:17Z</time>
      </trkpt>
      <trkpt lat="49.26534" lon="1.06021">
        <ele>61</ele>
        <time>2018-05-08T02:08:17Z</time>
      </trkpt>
      <trkpt lat="49.26572" lon="1.05982">
        <ele>58</ele>
        <time>2018-05-08T02:09:17Z</time>
      </trkpt>
      <trkpt lat="49.26615" lon="1.05903">
        <ele>55</ele>
        <time>2018-05-08T02:10:17Z</time>
      </trkpt>
      <trkpt lat="49.26672" lon="1.05842">
        <ele>47</ele>
        <time>2018-05-08T02:11:17Z</time>
      </trkpt>
      <trkpt lat="49.26745" lon="1.05737">
        <ele>40</ele>
        <time>2018-05-08T02:12:17Z</time>
      </trkpt>
      <trkpt lat="49.26793" lon="1.05454">
        <ele>36</ele>
        <time>2018-05-08T02:13:17Z</time>
      </trkpt>
      <trkpt lat="49.26791" lon="1.05396">
        <ele>36</ele>
        <time>2018-05-08T02:14:17Z</time>
      </trkpt>
      <trkpt lat="49.26719" lon="1.05445">
        <ele>37</ele>
        <time>2018-05-08T02:15:17Z</time>
      </trkpt>
      <trkpt lat="49.26668" lon="1.05445">
        <ele>37</ele>
        <time>2018-05-08T02:16:17Z</time>
      </trkpt>
      <trkpt lat="49.26601" lon="1.05445">
        <ele>39</ele>
        <time>2018-05-08T02:17:17Z</time>
      </trkpt>
      <trkpt lat="49.26514" lon="1.05394">
        <ele>38</ele>
        <time>2018-05-08T02:18:17Z</time>
      </trkpt>
      <trkpt lat="49.26353" lon="1.05378">
        <ele>39</ele>
        <time>2018-05-08T02:19:17Z</time>
      </trkpt>
      <trkpt lat="49.26332" lon="1.05331">
        <ele>37</ele>
        <time>2018-05-08T02:20:17Z</time>
      </trkpt>
      <trkpt lat="49.26311" lon="1.05317">
        <ele>38</ele>
        <time>2018-05-08T02:21:17Z</time>
      </trkpt>
      <trkpt lat="49.26291" lon="1.05321">
        <ele>39</ele>
        <time>2018-05-08T02:22:17Z</time>
      </trkpt>
      <trkpt lat="49.26278" lon="1.05265">
        <ele>42</ele>
        <time>2018-05-08T02:23:17Z</time>
      </trkpt>
      <trkpt lat="49.26309" lon="1.05232">
        <ele>44</ele>
        <time>2018-05-08T02:24:17Z</time>
      </trkpt>
      <trkpt lat="49.26425" lon="1.05176">
        <ele>44</ele>
        <time>2018-05-08T02:25:17Z</time>
      </trkpt>
      <trkpt lat="49.26312" lon="1.05194">
        <ele>48</ele>
        <time>2018-05-08T02:26:17Z</time>
      </trkpt>
      <trkpt lat="49.26237" lon="1.05158">
        <ele>52</ele>
        <time>2018-05-08T02:27:17Z</time>
      </trkpt>
      <trkpt lat="49.26084" lon="1.05035">
        <ele>67</ele>
        <time>2018-05-08T02:28:17Z</time>
      </trkpt>
      <trkpt lat="49.26166" lon="1.04997">
        <ele>65</ele>
        <time>2018-05-08T02:29:17Z</time>
      </trkpt>
      <trkpt lat="49.26171" lon="1.04973">
        <ele>66</ele>
        <time>2018-05-08T02:30:17Z</time>
      </trkpt>
      <trkpt lat="49.26142" lon="1.04928">
        <ele>72</ele>
        <time>2018-05-08T02:31:17Z</time>
      </trkpt>
      <trkpt lat="49.25506" lon="1.04474">
        <ele>120</ele>
        <time>2018-05-08T02:32:17Z</time>
      </trkpt>
      <trkpt lat="49.25344" lon="1.0436">
        <ele>121</ele>
        <time>2018-05-08T02:33:17Z</time>
      </trkpt>
      <trkpt lat="49.2399" lon="1.03439">
        <ele>130</ele>
        <time>2018-05-08T02:34:17Z</time>
      </trkpt>
      <trkpt lat="49.2404" lon="1.03272">
        <ele>134</ele>
        <time>2018-05-08T02:35:17Z</time>
      </trkpt>
      <trkpt lat="49.24068" lon="1.03239">
        <ele>131</ele>
        <time>2018-05-08T02:36:17Z</time>
      </trkpt>
      <trkpt lat="49.2411" lon="1.03121">
        <ele>124</ele>
        <time>2018-05-08T02:37:17Z</time>
      </trkpt>
      <trkpt lat="49.24263" lon="1.02904">
        <ele>99</ele>
        <time>2018-05-08T02:38:17Z</time>
      </trkpt>
      <trkpt lat="49.24314" lon="1.02878">
        <ele>92</ele>
        <time>2018-05-08T02:39:17Z</time>
      </trkpt>
      <trkpt lat="49.24422" lon="1.02764">
        <ele>79</ele>
        <time>2018-05-08T02:40:17Z</time>
      </trkpt>
      <trkpt lat="49.24441" lon="1.02765">
        <ele>80</ele>
        <time>2018-05-08T02:41:17Z</time>
      </trkpt>
      <trkpt lat="49.24511" lon="1.02877">
        <ele>80</ele>
        <time>2018-05-08T02:42:17Z</time>
      </trkpt>
      <trkpt lat="49.24579" lon="1.02924">
        <ele>75</ele>
        <time>2018-05-08T02:43:17Z</time>
      </trkpt>
      <trkpt lat="49.24643" lon="1.02894">
        <ele>74</ele>
        <time>2018-05-08T02:44:17Z</time>
      </trkpt>
      <trkpt lat="49.24685" lon="1.028">
        <ele>71</ele>
        <time>2018-05-08T02:45:17Z</time>
      </trkpt>
      <trkpt lat="49.24766" lon="1.02671">
        <ele>64</ele>
        <time>2018-05-08T02:46:17Z</time>
      </trkpt>
      <trkpt lat="49.24806" lon="1.02615">
        <ele>62</ele>
        <time>2018-05-08T02:47:17Z</time>
      </trkpt>
      <trkpt lat="49.24862" lon="1.02591">
        <ele>60</ele>
        <time>2018-05-08T02:48:17Z</time>
      </trkpt>
      <trkpt lat="49.24881" lon="1.02584">
        <ele>61</ele>
        <time>2018-05-08T02:49:17Z</time>
      </trkpt>
      <trkpt lat="49.24929" lon="1.0254">
        <ele>63</ele>
        <time>2018-05-08T02:50:17Z</time>
      </trkpt>
      <trkpt lat="49.24973" lon="1.02469">
        <ele>67</ele>
        <time>2018-05-08T02:51:17Z</time>
      </trkpt>
      <trkpt lat="49.2498" lon="1.02393">
        <ele>64</ele>
        <time>2018-05-08T02:52:17Z</time>
      </trkpt>
      <trkpt lat="49.24972" lon="1.02284">
        <ele>60</ele>
        <time>2018-05-08T02:53:17Z</time>
      </trkpt>
      <trkpt lat="49.24979" lon="1.02236">
        <ele>58</ele>
        <time>2018-05-08T02:54:17Z</time>
      </trkpt>
      <trkpt lat="49.24993" lon="1.02201">
        <ele>56</ele>
        <time>2018-05-08T02:55:17Z</time>
      </trkpt>
      <trkpt lat="49.25002" lon="1.02188">
        <ele>55</ele>
        <time>2018-05-08T02:56:17Z</time>
      </trkpt>
      <trkpt lat="49.25096" lon="1.02111">
        <ele>56</ele>
        <time>2018-05-08T02:57:17Z</time>
      </trkpt>
      <trkpt lat="49.25221" lon="1.0193">
        <ele>51</ele>
        <time>2018-05-08T02:58:17Z</time>
      </trkpt>
      <trkpt lat="49.25245" lon="1.01915">
        <ele>50</ele>
        <time>2018-05-08T02:59:17Z</time>
      </trkpt>
      <trkpt lat="49.25273" lon="1.01909">
        <ele>50</ele>
        <time>2018-05-08T03:00:17Z</time>
      </trkpt>
      <trkpt lat="49.25313" lon="1.01823">
        <ele>50</ele>
        <time>2018-05-08T03:01:17Z</time>
      </trkpt>
      <trkpt lat="49.25327" lon="1.01813">
        <ele>51</ele>
        <time>2018-05-08T03:02:17Z</time>
      </trkpt>
      <trkpt lat="49.25326" lon="1.01772">
        <ele>53</ele>
        <time>2018-05-08T03:03:17Z</time>
      </trkpt>
      <trkpt lat="49.25308" lon="1.01747">
        <ele>54</ele>
        <time>2018-05-08T03:04:17Z</time>
      </trkpt>
      <trkpt lat="49.25314" lon="1.01588">
        <ele>67</ele>
        <time>2018-05-08T03:05:17Z</time>
      </trkpt>
      <trkpt lat="49.25323" lon="1.01489">
        <ele>67</ele>
        <time>2018-05-08T03:06:17Z</time>
      </trkpt>
      <trkpt lat="49.25302" lon="1.01451">
        <ele>67</ele>
        <time>2018-05-08T03:07:17Z</time>
      </trkpt>
      <trkpt lat="49.25286" lon="1.01315">
        <ele>82</ele>
        <time>2018-05-08T03:08:17Z</time>
      </trkpt>
      <trkpt lat="49.25333" lon="1.01156">
        <ele>97</ele>
        <time>2018-05-08T03:09:17Z</time>
      </trkpt>
      <trkpt lat="49.25343" lon="1.01035">
        <ele>101</ele>
        <time>2018-05-08T03:10:17Z</time>
      </trkpt>
      <trkpt lat="49.2537" lon="1.01012">
        <ele>100</ele>
        <time>2018-05-08T03:11:17Z</time>
      </trkpt>
      <trkpt lat="49.25649" lon="0.99531">
        <ele>135</ele>
        <time>2018-05-08T03:12:17Z</time>
      </trkpt>
      <trkpt lat="49.25782" lon="0.99349">
        <ele>138</ele>
        <time>2018-05-08T03:13:17Z</time>
      </trkpt>
      <trkpt lat="49.25802" lon="0.99156">
        <ele>132</ele>
        <time>2018-05-08T03:14:17Z</time>
      </trkpt>
      <trkpt lat="49.25901" lon="0.98896">
        <ele>132</ele>
        <time>2018-05-08T03:15:17Z</time>
      </trkpt>
      <trkpt lat="49.25964" lon="0.98581">
        <ele>132</ele>
        <time>2018-05-08T03:16:17Z</time>
      </trkpt>
      <trkpt lat="49.25992" lon="0.98514">
        <ele>128</ele>
        <time>2018-05-08T03:17:17Z</time>
      </trkpt>
      <trkpt lat="49.2604" lon="0.98456">
        <ele>126</ele>
        <time>2018-05-08T03:18:17Z</time>
      </trkpt>
      <trkpt lat="49.26145" lon="0.98514">
        <ele>125</ele>
        <time>2018-05-08T03:19:17Z</time>
      </trkpt>
      <trkpt lat="49.26176" lon="0.98459">
        <ele>130</ele>
        <time>2018-05-08T03:20:17Z</time>
      </trkpt>
      <trkpt lat="49.26215" lon="0.98418">
        <ele>133</ele>
        <time>2018-05-08T03:21:17Z</time>
      </trkpt>
      <trkpt lat="49.26251" lon="0.98319">
        <ele>135</ele>
        <time>2018-05-08T03:22:17Z</time>
      </trkpt>
      <trkpt lat="49.26398" lon="0.97994">
        <ele>137</ele>
        <time>2018-05-08T03:23:17Z</time>
      </trkpt>
      <trkpt lat="49.26626" lon="0.97716">
        <ele>135</ele>
        <time>2018-05-08T03:24:17Z</time>
      </trkpt>
      <trkpt lat="49.27065" lon="0.97318">
        <ele>129</ele>
        <time>2018-05-08T03:25:17Z</time>
      </trkpt>
      <trkpt lat="49.27258" lon="0.97037">
        <ele>129</ele>
        <time>2018-05-08T03:26:17Z</time>
      </trkpt>
      <trkpt lat="49.27306" lon="0.97018">
        <ele>129</ele>
        <time>2018-05-08T03:27:17Z</time>
      </trkpt>
      <trkpt lat="49.27381" lon="0.96917">
        <ele>127</ele>
        <time>2018-05-08T03:28:17Z</time>
      </trkpt>
      <trkpt lat="49.27432" lon="0.97003">
        <ele>128</ele>
        <time>2018-05-08T03:29:17Z</time>
      </trkpt>
      <trkpt lat="49.27452" lon="0.96989">
        <ele>127</ele>
        <time>2018-05-08T03:30:17Z</time>
      </trkpt>
      <trkpt lat="49.27489" lon="0.97059">
        <ele>127</ele>
        <time>2018-05-08T03:31:17Z</time>
      </trkpt>
      <trkpt lat="49.27525" lon="0.97106">
        <ele>127</ele>
        <time>2018-05-08T03:32:17Z</time>
      </trkpt>
      <trkpt lat="49.27626" lon="0.96835">
        <ele>130</ele>
        <time>2018-05-08T03:33:17Z</time>
      </trkpt>
      <trkpt lat="49.27307" lon="0.9636">
        <ele>129</ele>
        <time>2018-05-08T03:34:17Z</time>
      </trkpt>
      <trkpt lat="49.27211" lon="0.96318">
        <ele>128</ele>
        <time>2018-05-08T03:35:17Z</time>
      </trkpt>
      <trkpt lat="49.27105" lon="0.96161">
        <ele>129</ele>
        <time>2018-05-08T03:36:17Z</time>
      </trkpt>
      <trkpt lat="49.27093" lon="0.96078">
        <ele>128</ele>
        <time>2018-05-08T03:37:17Z</time>
      </trkpt>
      <trkpt lat="49.27072" lon="0.95847">
        <ele>125</ele>
        <time>2018-05-08T03:38:17Z</time>
      </trkpt>
      <trkpt lat="49.27046" lon="0.95749">
        <ele>127</ele>
        <time>2018-05-08T03:39:17Z</time>
      </trkpt>
      <trkpt lat="49.27049" lon="0.9565">
        <ele>124</ele>
        <time>2018-05-08T03:40:17Z</time>
      </trkpt>
      <trkpt lat="49.27045" lon="0.95603">
        <ele>122</ele>
        <time>2018-05-08T03:41:17Z</time>
      </trkpt>
      <trkpt lat="49.27026" lon="0.95532">
        <ele>122</ele>
        <time>2018-05-08T03:42:17Z</time>
      </trkpt>
      <trkpt lat="49.27054" lon="0.95446">
        <ele>122</ele>
        <time>2018-05-08T03:43:17Z</time>
      </trkpt>
      <trkpt lat="49.27253" lon="0.95237">
        <ele>127</ele>
        <time>2018-05-08T03:44:17Z</time>
      </trkpt>
      <trkpt lat="49.27428" lon="0.94956">
        <ele>122</ele>
        <time>2018-05-08T03:45:17Z</time>
      </trkpt>
      <trkpt lat="49.27457" lon="0.94831">
        <ele>123</ele>
        <time>2018-05-08T03:46:17Z</time>
      </trkpt>
      <trkpt lat="49.27481" lon="0.94802">
        <ele>124</ele>
        <time>2018-05-08T03:47:17Z</time>
      </trkpt>
      <trkpt lat="49.2772" lon="0.94696">
        <ele>130</ele>
        <time>2018-05-08T03:48:17Z</time>
      </trkpt>
      <trkpt lat="49.27854" lon="0.946">
        <ele>125</ele>
        <time>2018-05-08T03:49:17Z</time>
      </trkpt>
      <trkpt lat="49.2788" lon="0.94607">
        <ele>125</ele>
        <time>2018-05-08T03:50:17Z</time>
      </trkpt>
      <trkpt lat="49.27902" lon="0.94626">
        <ele>124</ele>
        <time>2018-05-08T03:51:17Z</time>
      </trkpt>
      <trkpt lat="49.27938" lon="0.94634">
        <ele>124</ele>
        <time>2018-05-08T03:52:17Z</time>
      </trkpt>
      <trkpt lat="49.27991" lon="0.94799">
        <ele>124</ele>
        <time>2018-05-08T03:53:17Z</time>
      </trkpt>
      <trkpt lat="49.27987" lon="0.94945">
        <ele>126</ele>
        <time>2018-05-08T03:54:17Z</time>
      </trkpt>
      <trkpt lat="49.28019" lon="0.95038">
        <ele>127</ele>
        <time>2018-05-08T03:55:17Z</time>
      </trkpt>
      <trkpt lat="49.28171" lon="0.95282">
        <ele>125</ele>
        <time>2018-05-08T03:56:17Z</time>
      </trkpt>
      <trkpt lat="49.28234" lon="0.95436">
        <ele>124</ele>
        <time>2018-05-08T03:57:17Z</time>
      </trkpt>
      <trkpt lat="49.28305" lon="0.95542">
        <ele>123</ele>
        <time>2018-05-08T03:58:17Z</time>
      </trkpt>
      <trkpt lat="49.28349" lon="0.9564">
        <ele>122</ele>
        <time>2018-05-08T03:59:17Z</time>
      </trkpt>
      <trkpt lat="49.28381" lon="0.95617">
        <ele>123</ele>
        <time>2018-05-08T04:00:17Z</time>
      </trkpt>
      <trkpt lat="49.28488" lon="0.95637">
        <ele>124</ele>
        <time>2018-05-08T04:01:17Z</time>
      </trkpt>
      <trkpt lat="49.2869" lon="0.95501">
        <ele>124</ele>
        <time>2018-05-08T04:02:17Z</time>
      </trkpt>
      <trkpt lat="49.28795" lon="0.95573">
        <ele>115</ele>
        <time>2018-05-08T04:03:17Z</time>
      </trkpt>
      <trkpt lat="49.2884" lon="0.95644">
        <ele>112</ele>
        <time>2018-05-08T04:04:17Z</time>
      </trkpt>
      <trkpt lat="49.2885" lon="0.95728">
        <ele>111</ele>
        <time>2018-05-08T04:05:17Z</time>
      </trkpt>
      <trkpt lat="49.28898" lon="0.95775">
        <ele>111</ele>
        <time>2018-05-08T04:06:17Z</time>
      </trkpt>
      <trkpt lat="49.28929" lon="0.95757">
        <ele>113</ele>
        <time>2018-05-08T04:07:17Z</time>
      </trkpt>
      <trkpt lat="49.29055" lon="0.95911">
        <ele>118</ele>
        <time>2018-05-08T04:08:17Z</time>
      </trkpt>
      <trkpt lat="49.29096" lon="0.96075">
        <ele>119</ele>
        <time>2018-05-08T04:09:17Z</time>
      </trkpt>
      <trkpt lat="49.2925" lon="0.96266">
        <ele>126</ele>
        <time>2018-05-08T04:10:17Z</time>
      </trkpt>
      <trkpt lat="49.29377" lon="0.96313">
        <ele>128</ele>
        <time>2018-05-08T04:11:17Z</time>
      </trkpt>
      <trkpt lat="49.29454" lon="0.96345">
        <ele>128</ele>
        <time>2018-05-08T04:12:17Z</time>
      </trkpt>
      <trkpt lat="49.29575" lon="0.96302">
        <ele>129</ele>
        <time>2018-05-08T04:13:17Z</time>
      </trkpt>
      <trkpt lat="49.29792" lon="0.96158">
        <ele>128</ele>
        <time>2018-05-08T04:14:17Z</time>
      </trkpt>
      <trkpt lat="49.29832" lon="0.96082">
        <ele>128</ele>
        <time>2018-05-08T04:15:17Z</time>
      </trkpt>
      <trkpt lat="49.30093" lon="0.96196">
        <ele>115</ele>
        <time>2018-05-08T04:16:17Z</time>
      </trkpt>
      <trkpt lat="49.30107" lon="0.96153">
        <ele>115</ele>
        <time>2018-05-08T04:17:17Z</time>
      </trkpt>
      <trkpt lat="49.3018" lon="0.96038">
        <ele>118</ele>
        <time>2018-05-08T04:18:17Z</time>
      </trkpt>
      <trkpt lat="49.30218" lon="0.9604">
        <ele>119</ele>
        <time>2018-05-08T04:19:17Z</time>
      </trkpt>
      <trkpt lat="49.30323" lon="0.96108">
        <ele>124</ele>
        <time>2018-05-08T04:20:17Z</time>
      </trkpt>
      <trkpt lat="49.3039" lon="0.96122">
        <ele>125</ele>
        <time>2018-05-08T04:21:17Z</time>
      </trkpt>
      <trkpt lat="49.3041" lon="0.96146">
        <ele>125</ele>
        <time>2018-05-08T04:22:17Z</time>
      </trkpt>
      <trkpt lat="49.3048" lon="0.9634">
        <ele>127</ele>
        <time>2018-05-08T04:23:17Z</time>
      </trkpt>
      <trkpt lat="49.30519" lon="0.96373">
        <ele>127</ele>
        <time>2018-05-08T04:24:17Z</time>
      </trkpt>
      <trkpt lat="49.3059" lon="0.96454">
        <ele>127</ele>
        <time>2018-05-08T04:25:17Z</time>
      </trkpt>
      <trkpt lat="49.30896" lon="0.96684">
        <ele>126</ele>
        <time>2018-05-08T04:26:17Z</time>
      </trkpt>
      <trkpt lat="49.30898" lon="0.96709">
        <ele>127</ele>
        <time>2018-05-08T04:27:17Z</time>
      </trkpt>
      <trkpt lat="49.30918" lon="0.96681">
        <ele>127</ele>
        <time>2018-05-08T04:28:17Z</time>
      </trkpt>
      <trkpt lat="49.31004" lon="0.96555">
        <ele>125</ele>
        <time>2018-05-08T04:29:17Z</time>
      </trkpt>
      <trkpt lat="49.31041" lon="0.9644">
        <ele>122</ele>
        <time>2018-05-08T04:30:17Z</time>
      </trkpt>
      <trkpt lat="49.31105" lon="0.96392">
        <ele>121</ele>
        <time>2018-05-08T04:31:17Z</time>
      </trkpt>
      <trkpt lat="49.31107" lon="0.96299">
        <ele>118</ele>
        <time>2018-05-08T04:32:17Z</time>
      </trkpt>
      <trkpt lat="49.3116" lon="0.96305">
        <ele>117</ele>
        <time>2018-05-08T04:33:17Z</time>
      </trkpt>
      <trkpt lat="49.31199" lon="0.96276">
        <ele>119</ele>
        <time>2018-05-08T04:34:17Z</time>
      </trkpt>
      <trkpt lat="49.31244" lon="0.96217">
        <ele>123</ele>
        <time>2018-05-08T04:35:17Z</time>
      </trkpt>
      <trkpt lat="49.31262" lon="0.96159">
        <ele>124</ele>
        <time>2018-05-08T04:36:17Z</time>
      </trkpt>
      <trkpt lat="49.31306" lon="0.96103">
        <ele>126</ele>
        <time>2018-05-08T04:37:17Z</time>
      </trkpt>
      <trkpt lat="49.31315" lon="0.96034">
        <ele>126</ele>
        <time>2018-05-08T04:38:17Z</time>
      </trkpt>
      <trkpt lat="49.31326" lon="0.95989">
        <ele>127</ele>
        <time>2018-05-08T04:39:17Z</time>
      </trkpt>
      <trkpt lat="49.31329" lon="0.95927">
        <ele>128</ele>
        <time>2018-05-08T04:40:17Z</time>
      </trkpt>
      <trkpt lat="49.31311" lon="0.95858">
        <ele>129</ele>
        <time>2018-05-08T04:41:17Z</time>
      </trkpt>
      <trkpt lat="49.31287" lon="0.95809">
        <ele>130</ele>
        <time>2018-05-08T04:42:17Z</time>
      </trkpt>
      <trkpt lat="49.31242" lon="0.95794">
        <ele>129</ele>
        <time>2018-05-08T04:43:17Z</time>
      </trkpt>
      <trkpt lat="49.31179" lon="0.95772">
        <ele>126</ele>
        <time>2018-05-08T04:44:17Z</time>
      </trkpt>
      <trkpt lat="49.31243" lon="0.95395">
        <ele>131</ele>
        <time>2018-05-08T04:45:17Z</time>
      </trkpt>
      <trkpt lat="49.31159" lon="0.9485">
        <ele>128</ele>
        <time>2018-05-08T04:46:17Z</time>
      </trkpt>
      <trkpt lat="49.31112" lon="0.94356">
        <ele>118</ele>
        <time>2018-05-08T04:47:17Z</time>
      </trkpt>
      <trkpt lat="49.31085" lon="0.94365">
        <ele>117</ele>
        <time>2018-05-08T04:48:17Z</time>
      </trkpt>
      <trkpt lat="49.31048" lon="0.94363">
        <ele>117</ele>
        <time>2018-05-08T04:49:17Z</time>
      </trkpt>
      <trkpt lat="49.31" lon="0.94367">
        <ele>117</ele>
        <time>2018-05-08T04:50:17Z</time>
      </trkpt>
      <trkpt lat="49.30933" lon="0.94388">
        <ele>118</ele>
        <time>2018-05-08T04:51:17Z</time>
      </trkpt>
      <trkpt lat="49.30937" lon="0.9433">
        <ele>119</ele>
        <time>2018-05-08T04:52:17Z</time>
      </trkpt>
      <trkpt lat="49.30937" lon="0.94272">
        <ele>119</ele>
        <time>2018-05-08T04:53:17Z</time>
      </trkpt>
      <trkpt lat="49.30906" lon="0.93875">
        <ele>123</ele>
        <time>2018-05-08T04:54:17Z</time>
      </trkpt>
    </trkseg>
  </trk>
</gpx>